Observations for BOURNEMOUTH AIRPORT, United Kingdom (EGHH)

EGHH 280450Z VRB01KT 2000 -RA BR BKN002 16/15 Q0998 
EGHH 280150Z 29003KT 2500 -RA BR BKN015 15/15 Q0999 
EGHH 280120Z 26003KT 2500 -RA BR FEW005 BKN010 15/15 Q1000  
EGHH 280050Z 27003KT 2500 -RA BR BKN009 15/15 Q1000 
EGHH 280020Z 27003KT 4000 -RA BR BKN009 15/15 Q1000 
EGHH 272350Z 27003KT 4500 -RA BR BKN009 15/15 Q1001 
EGHH 272250Z 26002KT 4500 -RA BR BKN008 15/15 Q1001 
EGHH 272220Z 26003KT 5000 -RA BR BKN004 15/15 Q1001 
EGHH 272150Z 27004KT 5000 -RA BR BKN004 15/15 Q1002 
EGHH 272120Z 27004KT 6000 -RA BKN004 16/15 Q1002
EGHH 272050Z 27004KT 5000 -RA BR BKN003 16/15 Q1002 
EGHH 272020Z 28001KT 6000 -RA BKN005 16/15 Q1002
EGHH 271950Z 25001KT 7000 -RA FEW006 SCT025 16/15 Q1002 
EGHH 271920Z 25002KT 6000 -RA SCT028 16/15 Q1002
EGHH 271850Z 25001KT 6000 -RA BKN028 16/15 Q1002
EGHH 271820Z 28002KT 6000 -RA FEW005 BKN025 16/15 Q1003 
EGHH 271750Z 24002KT 6000 -RA BKN026 16/15 Q1003
EGHH 271720Z VRB03KT 6000 RA FEW008 BKN024 16/15 Q1003  
EGHH 271650Z VRB03KT 6000 RA FEW008 BKN026 17/15 Q1003  
EGHH 271620Z 16005KT 6000 RA FEW008 FEW019 BKN026 17/16 Q1004   
EGHH 271550Z VRB03KT 7000 -RA FEW008 SCT027 18/15 Q1004 
EGHH 271520Z VRB01KT 7000 -RA FEW008 SCT027 18/16 Q1005 
EGHH 271450Z 32001KT 7000 -RA FEW009 SCT027 BKN049 18/16 Q1004  
EGHH 271420Z VRB01KT 7000 RA FEW023 BKN027 18/15 Q1005  
EGHH 271350Z VRB02KT 8000 -RA FEW027 BKN032 18/15 Q1005 
EGHH 271320Z VRB03KT 9999 -RA SCT032 18/15 Q1005
EGHH 271250Z VRB03KT 9999 -RA FEW022 BKN030 18/15 Q1005 
EGHH 271220Z 19004KT 9999 RA FEW022 BKN030 18/14 Q1005  
EGHH 271150Z 19005KT 130V210 9999 FEW025 BKN027 19/14 Q1005 
EGHH 271120Z 18006KT 120V220 9999 FEW025 BKN027 19/13 Q1006 
EGHH 271050Z 17006KT 130V250 9999 FEW033 20/13 Q1006
EGHH 271020Z 17006KT 150V230 9999 FEW033 20/13 Q1006
EGHH 270950Z 21005KT 9999 FEW040 20/13 Q1006
EGHH 270920Z 16006KT 9999 FEW028 SCT046 20/12 Q1006 
EGHH 270850Z 14006KT 9999 FEW028 BKN044 19/12 Q1006 
EGHH 270820Z 14008KT 090V160 9999 BKN044 19/12 Q1006
EGHH 270750Z 12007KT 080V160 9999 FEW040 BKN044 19/12 Q1007 
EGHH 270720Z 07005KT 040V110 9999 BKN041 17/12 Q1007
EGHH 270650Z 07005KT 9999 BKN038 16/11 Q1007
EGHH 270620Z 04003KT 9999 BKN038 15/10 Q1007
EGHH 270550Z VRB03KT 9999 BKN040 15/10 Q1008
EGHH 270520Z 03003KT 9999 BKN042 14/10 Q1008
EGHH 270450Z VRB03KT 9999 BKN042 14/11 Q1008